Free aircraft booking by Goboko

Please sign in again to see renewals

Sign in

Links

Info

Aviation weather

METAR KDAB 200353Z 34006KT 10SM CLR 14/06 A3006 RMK AO2 SLP178 T01390061 $

TAF KDAB 192342Z 2000/2024 34008KT P6SM SCT030 FM201600 06012G18KT P6SM SCT040

Aviation weather from ADDS. Re-check weather before flight.

-